Terminal Aerodrome Forecast
Issued by NWS Charleston, WV

Current Version | Previous Version | Text Only | Print | Product List | Glossary Off
Versions: 1 2 3 4 5 6 7 8 9 10 11 12 13 14 15 16 17 18 19 20 21 22 23 24

000
FTUS41 KRLX 201720
TAFBKW
TAF
KBKW 201720Z 2018/2118 28007KT P6SM SCT060
     FM210400 24003KT 5SM BR SCT100
     FM210700 22003KT 1/4SM FG BKN001
     FM211300 VRB04KT 3SM BR BKN025
     FM211400 14005KT P6SM BKN130=

USA.gov is the U.S. government's official web portal to all federal, state and local government web resources and services.